Time;durP1;ratioP1;P1;durP2;ratioP2;P2;SDS_P1;SDS_P2;PMS_P1;PMS_P2;Temp;Humidity;BMP_temperature;BMP_pressure;BME280_temperature;BME280_humidity;BME280_pressure;Samples;Min_cycle;Max_cycle;Signal;HPM_P1;HPM_P2
2022/04/25 00:00:35;;;;;;;3.80;3.70;;;;;;;;;;5012109;28;20319;-62
2022/04/25 00:03:02;;;;;;;5.07;4.93;;;;;;;;;;5012511;28;20424;-62
2022/04/25 00:05:28;;;;;;;6.63;6.32;;;;;;;;;;5012355;28;20404;-62
2022/04/25 00:07:54;;;;;;;6.53;6.32;;;;;;;;;;5012270;28;20170;-62
2022/04/25 00:10:20;;;;;;;5.55;5.32;;;;;;;;;;5012009;28;20770;-62
2022/04/25 00:12:46;;;;;;;3.22;3.13;;;;;;;;;;5012293;28;20253;-62
2022/04/25 00:15:12;;;;;;;9.00;8.80;;;;;;;;;;5012216;28;20616;-62
2022/04/25 00:17:38;;;;;;;14.30;13.80;;;;;;;;;;5012180;28;20409;-62
2022/04/25 00:20:05;;;;;;;5.50;5.30;;;;;;;;;;5011891;28;20468;-62
2022/04/25 00:22:31;;;;;;;4.88;4.78;;;;;;;;;;5011980;28;20417;-62
2022/04/25 00:24:57;;;;;;;4.57;4.47;;;;;;;;;;5012086;28;20257;-62
2022/04/25 00:27:25;;;;;;;5.53;5.32;;;;;;;;;;5012085;28;20407;-62
2022/04/25 00:29:51;;;;;;;2.58;2.47;;;;;;;;;;5011916;28;20201;-62
2022/04/25 00:32:17;;;;;;;2.70;2.60;;;;;;;;;;5011855;28;20185;-62
2022/04/25 00:34:43;;;;;;;1.88;1.85;;;;;;;;;;5011923;28;20545;-62
2022/04/25 00:37:09;;;;;;;2.20;2.10;;;;;;;;;;5012366;28;20182;-62
2022/04/25 00:39:35;;;;;;;3.57;3.47;;;;;;;;;;5011796;28;21025;-62
2022/04/25 00:42:01;;;;;;;3.90;3.80;;;;;;;;;;5011792;28;20903;-62
2022/04/25 00:44:27;;;;;;;4.13;4.03;;;;;;;;;;5011862;28;20407;-62
2022/04/25 00:46:54;;;;;;;3.15;3.05;;;;;;;;;;5011950;28;20854;-62
2022/04/25 00:49:21;;;;;;;4.40;4.20;;;;;;;;;;5011690;28;20173;-62
2022/04/25 00:51:47;;;;;;;2.70;2.60;;;;;;;;;;5011751;28;20184;-63
2022/04/25 00:54:13;;;;;;;2.80;2.70;;;;;;;;;;5011825;28;20637;-62
2022/04/25 00:56:39;;;;;;;2.67;2.58;;;;;;;;;;5011747;28;20896;-62
2022/04/25 00:59:06;;;;;;;3.05;2.97;;;;;;;;;;5011737;28;20201;-62
2022/04/25 01:01:33;;;;;;;2.75;2.65;;;;;;;;;;5011421;28;20268;-62
2022/04/25 01:03:59;;;;;;;2.40;2.30;;;;;;;;;;5011625;28;20178;-62
2022/04/25 01:06:25;;;;;;;2.00;1.90;;;;;;;;;;5011650;28;20216;-62
2022/04/25 01:08:51;;;;;;;1.50;1.50;;;;;;;;;;5011659;28;20417;-62
2022/04/25 01:11:17;;;;;;;1.83;1.73;;;;;;;;;;5011389;28;20440;-62
2022/04/25 01:13:43;;;;;;;1.33;1.33;;;;;;;;;;5011582;28;20185;-62
2022/04/25 01:16:10;;;;;;;1.13;1.13;;;;;;;;;;5011616;28;20201;-62
2022/04/25 01:18:36;;;;;;;1.27;1.27;;;;;;;;;;5011385;28;20198;-62
2022/04/25 01:21:02;;;;;;;1.30;1.30;;;;;;;;;;5011184;28;20197;-61
2022/04/25 01:29:01;;;;;;;0.73;0.73;;;;;;;;;;5011798;28;20225;-62
2022/04/25 01:31:27;;;;;;;1.15;1.15;;;;;;;;;;5011228;28;20193;-61
2022/04/25 01:33:53;;;;;;;1.10;1.10;;;;;;;;;;5011577;28;20699;-61
2022/04/25 01:36:23;;;;;;;1.15;1.15;;;;;;;;;;5011514;28;20209;-61
2022/04/25 01:38:50;;;;;;;0.85;0.85;;;;;;;;;;5011191;28;20252;-62
2022/04/25 01:41:16;;;;;;;1.00;1.00;;;;;;;;;;5011081;28;20198;-62
2022/04/25 01:43:42;;;;;;;0.87;0.87;;;;;;;;;;5011868;28;20639;-62
2022/04/25 01:46:08;;;;;;;1.00;1.00;;;;;;;;;;5014988;28;20928;-62
2022/04/25 01:48:34;;;;;;;1.23;1.23;;;;;;;;;;5015032;28;20400;-62
2022/04/25 01:51:00;;;;;;;0.80;0.80;;;;;;;;;;5015648;28;20546;-62
2022/04/25 01:53:26;;;;;;;0.80;0.80;;;;;;;;;;5014810;28;20427;-62
2022/04/25 01:55:52;;;;;;;1.30;1.30;;;;;;;;;;5014691;28;20177;-61
2022/04/25 01:58:19;;;;;;;0.80;0.80;;;;;;;;;;5014624;28;20455;-62
2022/04/25 02:00:45;;;;;;;0.80;0.80;;;;;;;;;;5014439;28;20557;-62
2022/04/25 02:03:11;;;;;;;0.80;0.80;;;;;;;;;;5014689;28;20178;-62
2022/04/25 02:05:38;;;;;;;0.70;0.70;;;;;;;;;;5014583;28;20177;-62
2022/04/25 02:08:04;;;;;;;0.80;0.80;;;;;;;;;;5014513;28;20236;-62
2022/04/25 02:10:30;;;;;;;0.73;0.73;;;;;;;;;;5014092;28;20212;-61
2022/04/25 02:12:56;;;;;;;0.82;0.82;;;;;;;;;;5014426;28;20592;-62
2022/04/25 02:15:22;;;;;;;0.90;0.90;;;;;;;;;;5014428;28;20181;-62
2022/04/25 02:17:48;;;;;;;0.80;0.80;;;;;;;;;;5014382;28;20405;-61
2022/04/25 02:20:14;;;;;;;1.37;1.37;;;;;;;;;;5013906;28;20213;-61
2022/04/25 02:22:40;;;;;;;1.02;1.02;;;;;;;;;;5014257;28;20895;-62
2022/04/25 02:25:06;;;;;;;0.80;0.80;;;;;;;;;;5014160;28;20175;-62
2022/04/25 02:27:32;;;;;;;0.80;0.80;;;;;;;;;;5014142;28;20328;-62
2022/04/25 02:29:58;;;;;;;0.80;0.80;;;;;;;;;;5014224;28;20284;-62
2022/04/25 02:32:24;;;;;;;0.80;0.80;;;;;;;;;;5014007;28;20416;-62
2022/04/25 02:34:50;;;;;;;0.82;0.82;;;;;;;;;;5014018;28;20413;-62
2022/04/25 02:37:17;;;;;;;0.80;0.80;;;;;;;;;;5013934;28;20205;-62
2022/04/25 02:39:43;;;;;;;0.85;0.85;;;;;;;;;;5013741;28;20213;-62
2022/04/25 02:42:09;;;;;;;0.90;0.90;;;;;;;;;;5013698;28;20201;-62
2022/04/25 02:44:35;;;;;;;0.77;0.77;;;;;;;;;;5013854;28;20606;-62
2022/04/25 02:47:01;;;;;;;0.80;0.80;;;;;;;;;;5013952;28;20173;-62
2022/04/25 02:49:27;;;;;;;0.80;0.80;;;;;;;;;;5013592;28;20419;-63
2022/04/25 02:51:53;;;;;;;0.80;0.80;;;;;;;;;;5013381;28;20418;-62
2022/04/25 02:54:19;;;;;;;0.80;0.80;;;;;;;;;;5013590;28;20181;-62
2022/04/25 02:56:45;;;;;;;0.73;0.73;;;;;;;;;;5013544;28;20199;-62
2022/04/25 02:59:10;;;;;;;0.83;0.83;;;;;;;;;;5013547;28;20537;-62
2022/04/25 03:01:36;;;;;;;0.77;0.77;;;;;;;;;;5013235;28;20483;-61
2022/04/25 03:04:03;;;;;;;0.80;0.80;;;;;;;;;;5013568;28;20405;-60
2022/04/25 03:06:29;;;;;;;0.60;0.60;;;;;;;;;;5013397;28;20905;-63
2022/04/25 03:08:55;;;;;;;0.83;0.83;;;;;;;;;;5013499;28;20181;-61
2022/04/25 03:11:21;;;;;;;0.73;0.73;;;;;;;;;;5012991;28;20788;-62
2022/04/25 03:13:49;;;;;;;0.70;0.70;;;;;;;;;;5013323;28;20408;-61
2022/04/25 03:16:15;;;;;;;1.05;1.05;;;;;;;;;;5013348;28;20261;-62
2022/04/25 03:18:41;;;;;;;0.95;0.95;;;;;;;;;;5013145;28;20193;-62
2022/04/25 03:21:07;;;;;;;1.10;1.10;;;;;;;;;;5012764;28;20197;-62
2022/04/25 03:23:36;;;;;;;0.90;0.90;;;;;;;;;;5013105;28;20409;-62
2022/04/25 03:26:01;;;;;;;0.80;0.80;;;;;;;;;;5013232;28;20181;-62
2022/04/25 03:28:28;;;;;;;0.75;0.75;;;;;;;;;;5012014;28;20205;-62
2022/04/25 03:30:54;;;;;;;0.70;0.70;;;;;;;;;;5012680;28;20557;-62
2022/04/25 03:33:20;;;;;;;1.00;1.00;;;;;;;;;;5012995;28;20416;-62
2022/04/25 03:35:47;;;;;;;0.90;0.90;;;;;;;;;;5012821;28;20184;-62
2022/04/25 03:38:13;;;;;;;0.80;0.80;;;;;;;;;;5012970;28;20440;-62
2022/04/25 03:40:40;;;;;;;0.70;0.70;;;;;;;;;;5012449;28;20647;-62
2022/04/25 03:43:06;;;;;;;0.70;0.70;;;;;;;;;;5012917;28;20216;-62
2022/04/25 03:45:33;;;;;;;0.63;0.63;;;;;;;;;;5012843;28;20257;-62
2022/04/25 03:47:59;;;;;;;0.60;0.60;;;;;;;;;;5012731;28;20630;-62
2022/04/25 03:50:25;;;;;;;0.97;0.97;;;;;;;;;;5012174;28;20216;-62
2022/04/25 03:52:51;;;;;;;0.50;0.50;;;;;;;;;;5012725;28;20417;-62
2022/04/25 03:58:16;;;;;;;0.52;0.52;;;;;;;;;;5000413;28;20359;-61
2022/04/25 04:00:42;;;;;;;0.80;0.80;;;;;;;;;;5012061;28;20197;-61
2022/04/25 04:03:09;;;;;;;0.60;0.60;;;;;;;;;;5012442;28;20174;-63
2022/04/25 04:05:35;;;;;;;0.60;0.60;;;;;;;;;;5012447;28;20407;-61
2022/04/25 04:08:01;;;;;;;0.80;0.80;;;;;;;;;;5012004;28;20177;-61
2022/04/25 04:10:27;;;;;;;0.50;0.50;;;;;;;;;;5012035;28;20443;-62
2022/04/25 04:12:55;;;;;;;0.70;0.70;;;;;;;;;;5012374;28;20787;-62
2022/04/25 04:15:21;;;;;;;0.70;0.70;;;;;;;;;;5012233;28;20411;-62
2022/04/25 04:17:47;;;;;;;0.70;0.70;;;;;;;;;;5012264;28;20578;-62
2022/04/25 04:20:13;;;;;;;0.70;0.70;;;;;;;;;;5011821;28;20484;-62
2022/04/25 04:22:39;;;;;;;0.60;0.60;;;;;;;;;;5012136;28;20404;-61
2022/04/25 04:25:06;;;;;;;0.60;0.60;;;;;;;;;;5012081;28;20231;-61
2022/04/25 04:27:32;;;;;;;0.70;0.70;;;;;;;;;;5012078;28;20421;-61
2022/04/25 04:29:58;;;;;;;0.70;0.70;;;;;;;;;;5011782;28;20197;-61
2022/04/25 04:32:29;;;;;;;0.77;0.77;;;;;;;;;;5011887;28;20223;-61
2022/04/25 04:34:55;;;;;;;0.80;0.80;;;;;;;;;;5011981;28;20184;-62
2022/04/25 04:37:21;;;;;;;0.70;0.70;;;;;;;;;;5011962;28;20177;-62
2022/04/25 04:39:47;;;;;;;0.70;0.70;;;;;;;;;;5011775;28;20213;-61
2022/04/25 04:42:13;;;;;;;0.80;0.80;;;;;;;;;;5011687;28;20641;-62
2022/04/25 04:44:41;;;;;;;0.70;0.70;;;;;;;;;;5011939;28;20408;-60
2022/04/25 04:47:07;;;;;;;0.60;0.60;;;;;;;;;;5011967;28;20173;-61
2022/04/25 04:49:33;;;;;;;0.50;0.50;;;;;;;;;;5011685;28;20184;-62
2022/04/25 04:51:58;;;;;;;0.70;0.70;;;;;;;;;;5011599;28;20173;-61
2022/04/25 04:54:24;;;;;;;0.80;0.80;;;;;;;;;;5011855;28;20993;-62
2022/04/25 04:56:50;;;;;;;0.70;0.70;;;;;;;;;;5011631;28;20487;-61
2022/04/25 04:59:16;;;;;;;0.90;0.90;;;;;;;;;;5011499;28;20296;-62
2022/04/25 05:01:43;;;;;;;0.90;0.90;;;;;;;;;;5011434;28;20440;-62
2022/04/25 05:04:09;;;;;;;0.50;0.50;;;;;;;;;;5011713;28;20892;-62
2022/04/25 05:06:35;;;;;;;0.70;0.70;;;;;;;;;;5011664;28;20224;-62
2022/04/25 05:09:01;;;;;;;0.80;0.80;;;;;;;;;;5011487;28;20436;-62
2022/04/25 05:11:29;;;;;;;0.80;0.80;;;;;;;;;;5011341;28;20515;-62
2022/04/25 05:13:55;;;;;;;0.93;0.93;;;;;;;;;;5011467;28;20182;-61
2022/04/25 05:16:21;;;;;;;0.70;0.70;;;;;;;;;;5011490;28;20538;-62
2022/04/25 05:18:47;;;;;;;0.80;0.80;;;;;;;;;;5012232;28;20252;-61
2022/04/25 05:21:13;;;;;;;0.60;0.60;;;;;;;;;;5014952;28;20500;-60
2022/04/25 05:23:40;;;;;;;0.88;0.88;;;;;;;;;;5015276;28;20760;-62
2022/04/25 05:26:07;;;;;;;0.80;0.80;;;;;;;;;;5015065;28;20181;-61
2022/04/25 05:28:33;;;;;;;0.85;0.85;;;;;;;;;;5004756;28;20582;-61
2022/04/25 05:30:59;;;;;;;0.60;0.60;;;;;;;;;;5002870;28;20250;-61
2022/04/25 05:33:25;;;;;;;0.60;0.60;;;;;;;;;;4995549;28;20182;-62
2022/04/25 05:35:52;;;;;;;0.97;0.97;;;;;;;;;;4995396;28;20193;-61
2022/04/25 05:38:18;;;;;;;0.63;0.63;;;;;;;;;;4995308;28;20777;-61
2022/04/25 05:40:44;;;;;;;0.73;0.73;;;;;;;;;;4995066;28;20191;-61
2022/04/25 05:43:10;;;;;;;0.68;0.68;;;;;;;;;;4995255;28;20730;-62
2022/04/25 05:45:36;;;;;;;0.70;0.70;;;;;;;;;;4995432;28;20257;-62
2022/04/25 05:51:58;;;;;;;0.70;0.70;;;;;;;;;;4995412;28;20177;-62
2022/04/25 05:53:43;;;;;;;0.60;0.60;;;;;;;;;;4941758;28;20292;-62
2022/04/25 05:56:09;;;;;;;0.70;0.70;;;;;;;;;;4995157;28;20578;-62
2022/04/25 05:58:35;;;;;;;0.77;0.77;;;;;;;;;;4995035;28;20556;-62
2022/04/25 06:01:01;;;;;;;0.60;0.60;;;;;;;;;;4994702;28;20437;-62
2022/04/25 06:03:28;;;;;;;0.70;0.70;;;;;;;;;;4994993;28;20472;-63
2022/04/25 06:05:54;;;;;;;0.52;0.52;;;;;;;;;;4994787;28;20501;-62
2022/04/25 06:08:20;;;;;;;0.70;0.70;;;;;;;;;;4994946;28;20176;-62
2022/04/25 06:10:46;;;;;;;0.60;0.60;;;;;;;;;;4994518;28;20194;-63
2022/04/25 06:13:13;;;;;;;0.77;0.77;;;;;;;;;;5015408;28;20671;-62
2022/04/25 06:15:39;;;;;;;0.57;0.57;;;;;;;;;;5016524;28;20421;-62
2022/04/25 06:18:05;;;;;;;0.50;0.50;;;;;;;;;;5014277;28;20177;-61
2022/04/25 06:20:31;;;;;;;0.60;0.60;;;;;;;;;;5013837;28;20193;-62
2022/04/25 06:22:58;;;;;;;0.60;0.60;;;;;;;;;;4978955;28;20178;-62
2022/04/25 06:25:25;;;;;;;0.50;0.50;;;;;;;;;;4994587;28;20417;-63
2022/04/25 06:27:51;;;;;;;0.50;0.50;;;;;;;;;;4994614;28;20171;-62
2022/04/25 06:30:17;;;;;;;0.60;0.60;;;;;;;;;;4993348;28;20195;-61
2022/04/25 06:32:43;;;;;;;0.50;0.50;;;;;;;;;;5011673;28;20404;-59
2022/04/25 06:35:10;;;;;;;0.40;0.40;;;;;;;;;;4996605;28;20541;-60
2022/04/25 06:37:36;;;;;;;0.40;0.40;;;;;;;;;;5013836;28;20443;-60
2022/04/25 06:40:02;;;;;;;0.60;0.60;;;;;;;;;;4995984;28;20248;-62
2022/04/25 06:42:28;;;;;;;0.60;0.60;;;;;;;;;;4996508;28;20177;-62
2022/04/25 06:44:54;;;;;;;0.50;0.50;;;;;;;;;;5013547;28;20325;-62
2022/04/25 06:47:20;;;;;;;0.70;0.70;;;;;;;;;;5014149;28;20409;-62
2022/04/25 06:49:46;;;;;;;0.70;0.70;;;;;;;;;;5013617;28;20449;-62
2022/04/25 06:52:12;;;;;;;0.70;0.70;;;;;;;;;;5013464;28;20184;-63
2022/04/25 06:54:38;;;;;;;0.60;0.60;;;;;;;;;;5013800;28;20420;-64
2022/04/25 06:57:05;;;;;;;0.70;0.70;;;;;;;;;;5012889;28;20421;-62
2022/04/25 06:59:31;;;;;;;0.63;0.63;;;;;;;;;;5013146;28;20455;-63
2022/04/25 07:01:57;;;;;;;1.03;1.03;;;;;;;;;;5012891;28;20166;-63
2022/04/25 07:04:23;;;;;;;0.77;0.77;;;;;;;;;;4995931;28;20887;-63
2022/04/25 07:06:49;;;;;;;0.60;0.60;;;;;;;;;;5013507;28;20457;-62
2022/04/25 07:09:15;;;;;;;0.70;0.70;;;;;;;;;;5012911;28;20719;-62
2022/04/25 07:11:43;;;;;;;0.80;0.80;;;;;;;;;;5012988;28;20418;-63
2022/04/25 07:14:10;;;;;;;0.60;0.60;;;;;;;;;;5010892;28;20413;-63
2022/04/25 07:16:36;;;;;;;0.80;0.80;;;;;;;;;;5011868;28;20423;-63
2022/04/25 07:19:02;;;;;;;1.70;1.70;;;;;;;;;;4999235;28;20460;-62
